Flight Track Log - Related Links

Times and Time Zones

All times are in EDT time to prevent confusion due to time zone crossing. See the CSN6919 flight status page for this flight to view local times or setup timezone preferences in your user account.

Time Position Orientation Groundspeed Altitude Reporting Facility
EDT Latitude Longitude Course Direction KTS MPH feet Rate Location/Type
Sun 10:47:32 AM 33.6417 111.3294 111° Southeast  Level Estimated
Sun 10:48:32 AM 33.5880 111.4936 111° Southeast  Level Estimated
Sun 10:49:32 AM 33.5341 111.6577 112° Southeast  Level Estimated
Sun 10:50:32 AM 33.4800 111.8215 112° Southeast  Level Estimated
Sun 10:51:32 AM 33.4256 111.9852 112° Southeast  Level Estimated
Sun 10:52:32 AM 33.3711 112.1487 112° Southeast  Level Estimated
Sun 10:53:32 AM 33.3163 112.3119 112° Southeast  Level Estimated
Sun 10:54:32 AM 33.2614 112.4749 112° Southeast  Level Estimated
Sun 10:55:32 AM 33.2062 112.6378 112° Southeast  Level Estimated
Sun 10:56:32 AM 33.1508 112.8004 112° Southeast  Level Estimated
Sun 10:57:32 AM 33.0952 112.9628 112° Southeast  Level Estimated
Sun 10:58:32 AM 33.0394 113.1250 112° Southeast  Level Estimated
Sun 10:59:32 AM 32.9833 113.2870 112° Southeast  Level Estimated
Sun 11:00:32 AM 32.9271 113.4488 113° Southeast  Level Estimated
Sun 11:01:32 AM 32.8707 113.6104 113° Southeast  Level Estimated
Sun 11:02:32 AM 32.8140 113.7718 113° Southeast  Level Estimated
Sun 11:03:32 AM 32.7572 113.9330 113° Southeast  Level Estimated
Sun 11:04:32 AM 32.7001 114.0940 113° Southeast  Level Estimated
Sun 11:05:32 AM 32.6428 114.2548 113° Southeast  Level Estimated
Sun 11:06:32 AM 32.5854 114.4153 113° Southeast  Level Estimated
Sun 11:07:32 AM 32.5277 114.5757 113° Southeast  Level Estimated
Sun 11:08:32 AM 32.4698 114.7358 113° Southeast  Level Estimated
Sun 11:09:32 AM 32.4117 114.8958 113° Southeast  Level Estimated
Sun 11:10:32 AM 32.3535 115.0555 113° Southeast  Level Estimated
Sun 11:11:32 AM 32.2950 115.2151 113° Southeast  Level Estimated
Sun 11:12:32 AM 32.2363 115.3744 114° Southeast  Level Estimated
Sun 11:13:32 AM 32.1774 115.5335 114° Southeast  Level Estimated
Sun 11:14:32 AM 32.1183 115.6924 114° Southeast  Level Estimated
Sun 11:15:32 AM 32.0590 115.8511 114° Southeast  Level Estimated
Sun 11:16:32 AM 31.9995 116.0097 114° Southeast  Level Estimated
Sun 11:17:32 AM 31.9399 116.1680 114° Southeast  Level Estimated
Sun 11:18:32 AM 31.8800 116.3260 114° Southeast  Level Estimated
Sun 11:19:32 AM 31.8199 116.4839 114° Southeast  Level Estimated
Sun 11:20:32 AM 31.7597 116.6416 114° Southeast  Level Estimated
Sun 11:21:32 AM 31.6992 116.7991 114° Southeast  Level Estimated
Sun 11:22:32 AM 31.6386 116.9564 114° Southeast  Level Estimated
Sun 11:23:32 AM 31.5777 117.1134 114° Southeast  Level Estimated
Sun 11:24:32 AM 31.5167 117.2703 115° Southeast  Level Estimated
Sun 11:25:32 AM 31.4555 117.4269 115° Southeast  Level Estimated
Sun 11:26:32 AM 31.3940 117.5834 115° Southeast  Level Estimated
Sun 11:27:32 AM 31.3324 117.7396 115° Southeast  Level Estimated
Sun 11:28:32 AM 31.2706 117.8957 115° Southeast  Level Estimated
Sun 11:29:32 AM 31.2087 118.0515 115° Southeast  Level Estimated
Sun 11:30:32 AM 31.1465 118.2072 115° Southeast  Level Estimated
Sun 11:31:32 AM 31.0841 118.3626 115° Southeast  Level Estimated
Sun 11:32:32 AM 31.0216 118.5178 115° Southeast  Level Estimated
Sun 11:33:32 AM 30.9589 118.6728 115° Southeast  Level Estimated
Sun 11:34:32 AM 30.8960 118.8276 115° Southeast  Level Estimated
Sun 11:35:32 AM 30.8328 118.9822 115° Southeast  Level Estimated
Sun 11:36:32 AM 30.7696 119.1367 116° Southeast  Level Estimated
Sun 11:37:32 AM 30.7061 119.2909 116° Southeast  Level Estimated
Sun 11:38:32 AM 30.6425 119.4449 116° Southeast  Level Estimated
Sun 11:39:32 AM 30.5786 119.5987 116° Southeast  Level Estimated
Sun 11:40:32 AM 30.5146 119.7523 116° Southeast  Level Estimated
Sun 11:41:32 AM 30.4504 119.9057 116° Southeast  Level Estimated
Sun 11:42:32 AM 30.3861 120.0589 116° Southeast  Level Estimated
Sun 11:43:32 AM 30.3215 120.2119 116° Southeast  Level Estimated
Sun 11:44:32 AM 30.2568 120.3646 116° Southeast  Level Estimated
Sun 11:45:32 AM 30.1919 120.5172 296° West  Level Estimated
Sun 11:46:32 AM 30.2568 120.3646 116° Southeast  Level Estimated
Sun 11:47:32 AM 30.1919 120.5172 296° West  Level Estimated
Sun 11:48:32 AM 30.2568 120.3646 116° Southeast  Level Estimated
Sun 11:49:32 AM 30.1919 120.5172 296° West  Level Estimated
Sun 11:50:32 AM 30.2568 120.3646 116° Southeast  Level Estimated
Sun 11:51:32 AM 30.1919 120.5172 296° West  Level Estimated
Sun 11:52:32 AM 30.2568 120.3646 116° Southeast  Level Estimated
Sun 11:53:32 AM 30.1919 120.5172 296° West  Level Estimated
Sun 11:54:32 AM 30.2568 120.3646 116° Southeast  Level Estimated
Sun 11:55:32 AM 30.1919 120.5172 296° West  Level Estimated
Sun 11:56:32 AM 30.2568 120.3646 116° Southeast  Level Estimated
Sun 11:57:32 AM 30.1919 120.5172 296° West  Level Estimated
Sun 11:58:32 AM 30.2568 120.3646 116° Southeast  Level Estimated
Sun 11:59:32 AM 30.1919 120.5172 296° West  Level Estimated
Sun 12:00:32 PM 30.2568 120.3646 296° West  Level Estimated

Login

Don't have an account? Register now (free) for customized features, flight alerts, and more!